2DJGAME! NOVO



 找回密碼
 註冊
搜索
作者 回覆/查看 最後發表
[03-03] [2DJ.F][070302]伸ばしたこの手は届かない[301M] attachment bisheng1978 2007-03-03 02:54 12367 slim_temp 2007-03-05 20:56
[03-03] [2DJ.F][070302]僕ガ壊シタオ嬢サマ パッケージ版[191M] attachment bisheng1978 2007-03-03 00:35 22542 大阪 2007-03-06 20:11
[03-02] [2DJ.F][070302]マコトねーちゃんのボク教育法?![171M] attachment bisheng1978 2007-03-02 23:58 112868 robinlee555 2007-03-05 21:14
[03-01] [2DJ.F][070302]カフェ·ジャンキー[992M] attachment  ...2 bisheng1978 2007-03-01 22:19 154312 ritzy 2007-12-22 21:18
[03-01] [0703]2007年03+04月补丁专区,只准在此帖貼补丁,禁止其他回復 attachment mingla 2007-03-01 18:49 32812 ☆阿亞☆ 2007-03-06 10:32
[02-27] [070223]新作特典x5[2.01G] attachment ☆阿亞☆ 2007-02-27 01:36 92199 天下一H男 2007-03-01 16:37
[02-25] [2DJ.F][070223]ミライファンディスク[2.48G] attachment bisheng1978 2007-02-25 01:01 54030 zq3737334 2007-03-02 14:35
[02-24] [2DJ.F][070223]おいしい魔法のとなえかた。 初回版(硬盘版)[2.65G] attachment  ...2 bisheng1978 2007-02-24 20:55 224702 1118 2007-03-01 09:14
[02-24] [070223]新作特典x4[1.24G] attachment ☆阿亞☆ 2007-02-24 19:46 102459 libra_j 2007-03-03 13:34
[02-24] [2DJ.F][070223]つ·ぼ·み パッケージ版[224M] attachment bisheng1978 2007-02-24 12:42 32303 mzx123 2007-02-24 21:05
[02-24] [2DJ.F][070223]真·女教師 誘惑進路指導室 初回限定版[1.51G] attachment bisheng1978 2007-02-24 12:31 135379 adn85120 2007-03-09 01:35
[02-24] [2DJ.F][070223]幼なじみと甘~くエッチに過ごす方法 去垃圾版[1.22G] attachment  ...2 bisheng1978 2007-02-24 08:14 173358 是是而非 2007-03-14 17:55
[02-24] [2DJ.F][070223]魔法少女ナユタ[915M] attachment bisheng1978 2007-02-24 07:49 42957 onlinewin 2007-02-24 18:52
[02-24] [2DJ.F][070223]乱交地獄~泥濘に堕ちる女~ パッケージ版[240M] attachment bisheng1978 2007-02-24 07:44 53070 是是而非 2007-03-13 17:40
[02-24] [2DJ.F][070223]堕淫巫女[1005M] attachment bisheng1978 2007-02-24 07:39 63325 大阪 2007-03-02 22:44
[02-24] [2DJ.F][070223]背徳の学園2~闇を継ぐ者~[1.21G] attachment bisheng1978 2007-02-24 07:29 33729 moloch 2007-02-26 20:11
[02-24] [2DJ.F][070223]淫渦学園大戦~女子校生淫辱~[2.06G] attachment bisheng1978 2007-02-24 07:22 74085 guois 2007-03-09 13:07
[02-24] [2DJ.F][070223]DL版新作X4(二)[1.59G] attachment bisheng1978 2007-02-24 07:13 12367 happymolly 2007-02-24 17:40
[02-24] [2DJ.F][070223]綾瀬家のオンナ~淫華の血脈~[1G] attachment bisheng1978 2007-02-24 01:10 43342 龙冷焰 2007-03-02 22:45
[02-24] [2DJ.F][070223]黒髪少女隊えくすて![1.51G] attachment bisheng1978 2007-02-24 00:20 62969 痴汉 2007-02-28 00:34
[02-23] [2DJ.F][070223]えむぴぃ[3.25G] attachment  ...2 bisheng1978 2007-02-23 18:57 163850 chikane 2007-03-01 22:59
[02-23] [2DJ.F][070223]DL版新作X4[1.18G] attachment bisheng1978 2007-02-23 16:11 32357 larchsis 2007-02-23 21:43
[02-23] [2DJ.F][070223]幼なじみと甘~くエッチに過ごす方法[2.17G] attachment bisheng1978 2007-02-23 10:14 102886 chikane 2007-02-27 22:12
[02-23] [2DJ.F][070223]うつりぎ七恋天気あめ 初回版[2.34G] attachment bisheng1978 2007-02-23 10:05 82986 hhj 2007-02-24 21:00
[02-23] [2DJ.F][070223]Kissy Kissy ~わたしのたまご~[1.11G] attachment bisheng1978 2007-02-23 09:58 32406 maohu 2007-02-27 06:17
[02-23] [2DJ.F][070223]式神~桔梗の華に秘めたる想い~初回特典版[927M] attachment  ...23 bisheng1978 2007-02-23 09:52 405492 skyboy 2007-03-03 18:46
[02-23] [2DJ.F][070223]エグザミネイター 初回版[1.77G] attachment bisheng1978 2007-02-23 07:24 42967 moonwater 2007-02-23 22:53
[02-23] [2DJ.F][070223]ホシツグヨ[834M] attachment bisheng1978 2007-02-23 03:29 32645 e.go爱好者 2007-03-01 21:59
[02-23] [2DJ.F][070223]妻ようじ~ボクは人妻管理人~[1.27G] attachment bisheng1978 2007-02-23 02:42 124892 06330 2007-03-11 11:56
[02-23] [2DJ.F][070223]姫騎士アンジェリカ~あなたって、本当に最低の屑だわ!+特典[2.22G] attachment bisheng1978 2007-02-23 01:11 134991 guois 2007-03-08 08:15
[02-22] [2DJ.F][070223]ご奉仕★プリンセス[492M] attachment bisheng1978 2007-02-22 16:14 62998 larchsis 2007-02-23 12:03
[02-22] [2DJ.F][070209]家政夫鬼平~潜入!未亡人一家女体まみれ~ DL版[317M] attachment bisheng1978 2007-02-22 15:38 63179 hhj 2007-02-24 19:04
[02-22] [2DJ.F][070223]みみ×みみ!~発情注意報~(含特典)[1.16G] attachment bisheng1978 2007-02-22 15:29 43153 蒼羽月 2007-02-24 02:16
[02-22] [070223]操り孕ませDream Note限定版 同捆OST[331M] attachment ☆阿亞☆ 2007-02-22 08:42 31792 h-box 2007-02-22 11:35
[02-22] [2DJ.F][070223]人妻戦隊アイサイガーPOWERED[2.67G] attachment  ...2 bisheng1978 2007-02-22 08:07 174271 naruto123 2007-03-14 17:28
[02-22] [2DJ.F][070223]ぴあ雀 初回版[1.05G] attachment  ...2 bisheng1978 2007-02-22 03:08 153962 robotomy 2007-03-01 11:09
[02-22] [2DJ.F][070223]操り孕ませDream Note 限定版[1.24G] attachment  ...2 bisheng1978 2007-02-22 01:28 274434 dewprism 2007-02-22 23:28
[02-16] [2DJ.F][070216]肛奉巫女~純潔ノ肛育姉妹~去垃圾修正版[670M] attachment  ...2 bisheng1978 2007-02-16 08:08 248744 6776768 2007-02-25 04:09
[02-16] [2DJ.F][070216]母奪~禁断の触手相姦 DL版[177M] attachment bisheng1978 2007-02-16 01:13 33555 人类的故事 2007-02-21 23:41
[02-16] [2DJ.F][070209]プリンセスサーガIV~淫辱の女騎士 DL版[186M] attachment bisheng1978 2007-02-16 00:25 82740 fate19850821 2007-02-23 22:39
[02-16] [2DJ.F][070216]肛奉巫女~純潔ノ肛育姉妹~去垃圾版[670M] attachment bisheng1978 2007-02-16 00:12 53065 redsouris 2007-02-16 08:08
[02-15] [2DJ.F][070216]浮気妻~巨乳人妻乱れマンション~[691M] attachment bisheng1978 2007-02-15 20:45 85194 梦碎星痕 2007-02-21 12:01
[02-15] [2DJ.F][070216]ゆ~わく恋愛~実は巨乳でムチムチで~パッケージ版[240M] attachment bisheng1978 2007-02-15 14:13 53000 farseer 2007-02-16 23:31
[02-13] [070201]ボクと彼女と学園性活+ゆめ色 ふあふあ ミルクくりぃむ[360M][同人] attachment  ...23456..15 cai6424 2007-02-13 21:12 2168621 mmlik 2007-02-26 21:32
[01-12] [0701]2007年01+02月补丁专区,只准在此帖貼补丁,禁止其他回復 attachment mingla 2007-01-12 16:22 12609 ☆阿亞☆ 2007-02-24 05:59
[08-20] [公告] 遊戲翻譯介紹可到WIKI查看 Claus 2006-08-20 23:31 01977 Claus 2006-08-20 23:31
公告 [07-13] [新作發佈區豆知識] 本區內發佈,轉載前請得到發佈組或發佈者允許,謝謝 Claus 2006-07-13 20:36 03341 Claus 2006-07-13 20:36
[08-05] [入區必看] 新作发布区版規 Ver3.0 [2013.05.23更新] mingla 2004-08-05 15:10 015935 mingla 2004-08-05 15:10
[01-01] 魔導巧殻 ~闇の月女神は導国で詠う~ 匿名用戶 1970-01-01 08:00 12451 匿名用戶 2013-04-27 20:03
[01-01] 凛戒学園 匿名用戶 1970-01-01 08:00 71770 匿名用戶 2014-03-16 00:54
[01-01] 今日、捨て犬を拾った。 - Today, I picked up a discarded dog. - 匿名用戶 1970-01-01 08:00 0455 匿名用戶 2016-07-10 00:08

快速發帖

還可輸入 80 個字符
您需要登錄後才可以發帖 登錄 | 註冊
驗證碼 換一個

手機版|Archiver|2DJGAME 多元化AMCG站

GMT+8, 2018-06-19 20:46 , Processed in 0.313393 second(s), 3 queries , Wincache On.

Powered by 2DJGAME

© 2003-2013 ~

回頂部